createdAt,value
2019-01-13T00:02:21.101Z,21.90
2019-01-13T00:04:52.978Z,25.07
2019-01-13T00:07:26.663Z,22.23
2019-01-13T00:09:58.728Z,27.03
2019-01-13T00:12:35.559Z,23.30
2019-01-13T00:15:04.597Z,32.80
2019-01-13T00:17:36.397Z,35.07
2019-01-13T00:20:09.645Z,30.63
2019-01-13T00:22:41.292Z,34.17
2019-01-13T00:25:13.431Z,29.87
2019-01-13T00:27:45.567Z,29.77
2019-01-13T00:30:19.412Z,33.30
2019-01-13T00:32:51.856Z,28.77
2019-01-13T00:35:23.882Z,24.73
2019-01-13T00:37:55.707Z,27.13
2019-01-13T00:40:27.849Z,34.37
2019-01-13T00:42:59.813Z,27.13
2019-01-13T00:45:31.866Z,23.00
2019-01-13T00:48:04.983Z,30.20
2019-01-13T00:50:36.520Z,29.30
2019-01-13T00:53:09.034Z,27.33
2019-01-13T00:55:40.611Z,29.10
2019-01-13T00:58:12.238Z,27.40
2019-01-13T01:00:44.882Z,31.23
2019-01-13T01:03:17.256Z,24.40
2019-01-13T01:05:50.456Z,24.90
2019-01-13T01:08:22.308Z,26.53
2019-01-13T01:10:55.176Z,31.20
2019-01-13T01:13:26.752Z,24.67
2019-01-13T01:15:59.233Z,22.70
2019-01-13T01:18:31.149Z,23.87
2019-01-13T01:21:02.730Z,26.00
2019-01-13T01:23:36.350Z,27.27
2019-01-13T01:26:08.268Z,29.00
2019-01-13T01:28:40.294Z,24.87
2019-01-13T01:31:12.855Z,23.67
2019-01-13T01:33:44.920Z,29.40
2019-01-13T01:36:17.648Z,29.87
2019-01-13T01:38:49.895Z,25.93
2019-01-13T01:41:21.676Z,26.13
2019-01-13T01:43:53.644Z,24.17
2019-01-13T01:46:26.092Z,27.77
2019-01-13T01:48:58.891Z,27.50
2019-01-13T01:51:31.058Z,26.37
2019-01-13T01:54:03.011Z,27.17
2019-01-13T01:56:34.849Z,22.43
2019-01-13T01:59:09.556Z,24.17
2019-01-13T02:01:41.269Z,27.37
2019-01-13T02:04:15.607Z,28.20
2019-01-13T02:06:47.444Z,29.57
2019-01-13T02:09:19.431Z,30.43
2019-01-13T02:11:51.918Z,28.33
2019-01-13T02:14:24.182Z,29.13
2019-01-13T02:16:57.795Z,32.20
2019-01-13T02:19:30.215Z,33.93
2019-01-13T02:22:02.398Z,25.73
2019-01-13T02:24:35.356Z,30.27
2019-01-13T02:27:08.254Z,28.23
2019-01-13T02:29:41.545Z,28.53
2019-01-13T02:32:13.687Z,29.03
2019-01-13T02:34:46.049Z,28.10
2019-01-13T02:37:18.532Z,28.27
2019-01-13T02:39:50.864Z,28.17
2019-01-13T02:42:23.211Z,28.77
2019-01-13T02:44:55.294Z,28.77
2019-01-13T02:47:26.998Z,27.30
2019-01-13T02:49:59.089Z,30.03
2019-01-13T02:52:31.213Z,26.50
2019-01-13T02:55:05.121Z,25.83
2019-01-13T02:57:36.908Z,28.03
2019-01-13T03:00:12.225Z,29.37
2019-01-13T03:02:44.294Z,28.70
2019-01-13T03:05:17.167Z,29.53
2019-01-13T03:07:49.148Z,27.70
2019-01-13T03:10:25.677Z,32.40
2019-01-13T03:12:57.710Z,29.17
2019-01-13T03:15:30.002Z,30.33
2019-01-13T03:18:02.063Z,26.23
2019-01-13T03:20:34.237Z,27.23
2019-01-13T03:23:06.107Z,26.03
2019-01-13T03:25:38.477Z,29.17
2019-01-13T03:28:12.853Z,28.63
2019-01-13T03:30:44.416Z,30.17
2019-01-13T03:33:16.783Z,33.43
2019-01-13T03:35:48.603Z,31.67
2019-01-13T03:38:20.356Z,30.73
2019-01-13T03:40:52.249Z,30.23
2019-01-13T03:43:24.660Z,30.73
2019-01-13T03:46:00.793Z,31.70
2019-01-13T03:48:32.931Z,28.40
2019-01-13T03:51:04.949Z,34.13
2019-01-13T03:53:37.566Z,29.43
2019-01-13T03:56:09.637Z,32.97
2019-01-13T03:58:41.752Z,27.07
2019-01-13T04:01:18.573Z,32.40
2019-01-13T04:03:47.900Z,31.47
2019-01-13T04:06:20.031Z,32.97
2019-01-13T04:08:51.953Z,34.37
2019-01-13T04:11:24.632Z,34.63
2019-01-13T04:13:57.925Z,34.60
2019-01-13T04:16:31.486Z,33.13
2019-01-13T04:19:03.957Z,34.33
2019-01-13T04:21:35.609Z,39.17
2019-01-13T04:24:09.183Z,36.13
2019-01-13T04:26:43.150Z,36.87
2019-01-13T04:29:15.808Z,37.63
2019-01-13T04:31:48.904Z,36.03
2019-01-13T04:34:21.842Z,35.67
2019-01-13T04:36:56.863Z,35.83
2019-01-13T04:39:28.596Z,35.00
2019-01-13T04:42:00.647Z,32.63
2019-01-13T04:44:32.216Z,31.13
2019-01-13T04:47:04.311Z,31.37
2019-01-13T04:49:36.106Z,31.93
2019-01-13T04:52:08.979Z,29.77
2019-01-13T04:54:41.983Z,25.73
2019-01-13T04:57:16.464Z,28.60
2019-01-13T04:59:50.850Z,28.57
2019-01-13T05:02:23.271Z,30.97
2019-01-13T05:04:55.504Z,27.27
2019-01-13T05:07:27.563Z,26.63
2019-01-13T05:09:59.764Z,24.63
2019-01-13T05:12:31.839Z,28.23
2019-01-13T05:15:03.512Z,28.00
2019-01-13T05:17:35.462Z,27.10
2019-01-13T05:20:09.916Z,23.83
2019-01-13T05:22:41.879Z,21.70
2019-01-13T05:25:14.458Z,22.67
2019-01-13T05:27:46.510Z,21.20
2019-01-13T05:30:20.259Z,20.00
2019-01-13T05:32:52.480Z,20.33
2019-01-13T05:35:25.733Z,23.10
2019-01-13T05:37:57.743Z,20.47
2019-01-13T05:40:29.794Z,23.07
2019-01-13T05:43:02.790Z,22.83
2019-01-13T05:45:34.749Z,20.77
2019-01-13T05:48:06.865Z,23.97
2019-01-13T05:50:39.137Z,24.50
2019-01-13T05:53:12.552Z,24.17
2019-01-13T05:55:45.178Z,20.63
2019-01-13T05:58:17.728Z,22.57
2019-01-13T06:00:49.795Z,23.17
2019-01-13T06:03:22.078Z,27.23
2019-01-13T06:05:53.948Z,27.60
2019-01-13T06:08:26.209Z,26.73
2019-01-13T06:10:58.758Z,25.47
2019-01-13T06:13:31.282Z,31.40
2019-01-13T06:16:03.510Z,30.80
2019-01-13T06:18:36.821Z,30.13
2019-01-13T06:21:09.169Z,28.43
2019-01-13T06:23:43.590Z,29.07
2019-01-13T06:26:16.132Z,32.60
2019-01-13T06:28:48.704Z,29.17
2019-01-13T06:31:20.951Z,27.43
2019-01-13T06:33:53.690Z,27.37
2019-01-13T06:36:26.083Z,22.23
2019-01-13T06:38:58.533Z,26.23
2019-01-13T06:41:31.206Z,29.60
2019-01-13T06:44:03.671Z,26.40
2019-01-13T06:46:36.065Z,26.23
2019-01-13T06:49:09.741Z,22.97
2019-01-13T06:51:42.468Z,23.80
2019-01-13T06:54:15.006Z,21.63
2019-01-13T06:56:47.356Z,21.77
2019-01-13T06:59:19.686Z,22.67
2019-01-13T07:01:51.308Z,21.17
2019-01-13T07:04:24.338Z,19.00
2019-01-13T07:07:04.765Z,22.03
2019-01-13T07:09:36.905Z,19.67
2019-01-13T07:12:08.873Z,18.47
2019-01-13T07:14:41.262Z,16.10
2019-01-13T07:17:13.554Z,22.10
2019-01-13T07:19:46.154Z,15.27
2019-01-13T07:22:18.560Z,14.90
2019-01-13T07:24:51.175Z,15.70
2019-01-13T07:27:23.371Z,13.57
2019-01-13T07:29:55.920Z,13.37
2019-01-13T07:32:28.412Z,13.63
2019-01-13T07:35:01.922Z,14.40
2019-01-13T07:37:35.494Z,13.47
2019-01-13T07:40:14.638Z,12.70
2019-01-13T07:42:49.183Z,12.43
2019-01-13T07:45:27.734Z,12.10
2019-01-13T07:48:02.497Z,13.77
2019-01-13T07:50:36.815Z,14.30
2019-01-13T07:53:12.200Z,15.97
2019-01-13T07:55:46.546Z,14.33
2019-01-13T07:58:23.296Z,14.60
2019-01-13T08:00:58.890Z,14.03
2019-01-13T08:03:33.380Z,22.37
2019-01-13T08:06:09.407Z,15.20
2019-01-13T08:08:44.871Z,17.00
2019-01-13T08:11:19.575Z,13.17
2019-01-13T08:13:52.970Z,16.60
2019-01-13T08:16:26.695Z,23.60
2019-01-13T08:18:59.745Z,17.77
2019-01-13T08:21:33.543Z,19.63
2019-01-13T08:24:07.270Z,21.27
2019-01-13T08:26:40.980Z,17.67
2019-01-13T08:29:13.853Z,17.73
2019-01-13T08:31:46.459Z,18.77
2019-01-13T08:34:20.636Z,23.37
2019-01-13T08:36:52.980Z,40.27
2019-01-13T08:39:25.636Z,28.87
2019-01-13T08:41:57.897Z,37.50
2019-01-13T08:44:30.615Z,38.57
2019-01-13T08:47:03.581Z,49.30
2019-01-13T08:49:36.396Z,40.73
2019-01-13T08:52:12.207Z,37.03
2019-01-13T08:54:47.415Z,38.47
2019-01-13T08:57:20.842Z,38.17
2019-01-13T08:59:55.075Z,38.27
2019-01-13T09:02:32.318Z,48.20
2019-01-13T09:05:05.825Z,45.57
2019-01-13T09:07:38.744Z,44.37
2019-01-13T09:10:14.005Z,33.90
2019-01-13T09:12:56.384Z,35.77
2019-01-13T09:15:26.258Z,45.47
2019-01-13T09:18:01.419Z,33.13
2019-01-13T09:20:37.654Z,40.83
2019-01-13T09:23:13.147Z,38.17
2019-01-13T09:25:47.695Z,46.60
2019-01-13T09:28:21.372Z,41.60
2019-01-13T09:30:55.553Z,44.47
2019-01-13T09:33:29.396Z,40.90
2019-01-13T09:36:02.935Z,50.50
2019-01-13T09:38:40.115Z,39.33
2019-01-13T09:41:14.895Z,45.70
2019-01-13T09:43:49.174Z,45.93
2019-01-13T09:46:23.697Z,54.63
2019-01-13T09:48:59.749Z,48.40
2019-01-13T09:51:33.552Z,52.97
2019-01-13T09:54:10.771Z,50.77
2019-01-13T09:56:47.334Z,49.97
2019-01-13T09:59:22.661Z,55.90
2019-01-13T10:01:58.214Z,49.07
2019-01-13T10:04:31.184Z,41.83
2019-01-13T10:07:05.971Z,47.93
2019-01-13T10:09:42.586Z,46.97
2019-01-13T10:12:17.923Z,30.53
2019-01-13T10:14:54.436Z,36.93
2019-01-13T10:17:27.786Z,40.37
2019-01-13T10:20:06.016Z,46.17
2019-01-13T10:22:39.998Z,50.33
2019-01-13T10:25:12.666Z,48.13
2019-01-13T10:27:44.903Z,49.80
2019-01-13T10:30:20.835Z,45.20
2019-01-13T10:32:55.164Z,36.97
2019-01-13T10:35:34.004Z,43.40
2019-01-13T10:38:06.608Z,36.40
2019-01-13T10:40:38.644Z,50.30
2019-01-13T10:43:10.684Z,35.73
2019-01-13T10:45:49.675Z,42.87
2019-01-13T10:48:26.922Z,34.57
2019-01-13T10:51:00.089Z,31.03
2019-01-13T10:53:33.687Z,39.13
2019-01-13T10:56:06.193Z,32.60
2019-01-13T10:58:38.402Z,31.40
2019-01-13T11:01:12.039Z,28.73
2019-01-13T11:03:44.771Z,25.17
2019-01-13T11:06:17.247Z,27.97
2019-01-13T11:08:52.245Z,27.17
2019-01-13T11:11:25.223Z,38.27
2019-01-13T11:13:58.863Z,32.43
2019-01-13T11:16:36.274Z,25.60
2019-01-13T11:19:08.969Z,28.00
2019-01-13T11:21:46.505Z,23.47
2019-01-13T11:24:17.636Z,22.80
2019-01-13T11:26:51.083Z,17.13
2019-01-13T11:29:21.852Z,22.30
2019-01-13T11:31:57.097Z,15.57
2019-01-13T11:34:28.694Z,18.13
2019-01-13T11:37:02.950Z,21.13
2019-01-13T11:39:34.076Z,23.73
2019-01-13T11:42:06.551Z,19.57
2019-01-13T11:44:37.193Z,31.97
2019-01-13T11:47:08.568Z,28.37
2019-01-13T11:49:39.327Z,40.43
2019-01-13T11:52:10.035Z,32.50
2019-01-13T11:54:42.389Z,30.63
2019-01-13T11:57:13.049Z,38.37
2019-01-13T12:02:32.644Z,32.60
2019-01-13T12:05:02.239Z,27.97
2019-01-13T12:07:33.235Z,28.37
2019-01-13T12:10:04.804Z,28.33
2019-01-13T12:12:35.645Z,40.80
2019-01-13T12:15:09.237Z,38.20
2019-01-13T12:17:41.249Z,43.40
2019-01-13T12:20:14.543Z,39.00
2019-01-13T12:22:46.566Z,23.13
2019-01-13T12:25:17.987Z,35.43
2019-01-13T12:27:48.733Z,29.30
2019-01-13T12:30:24.806Z,32.63
2019-01-13T12:32:57.920Z,27.23
2019-01-13T12:35:28.585Z,33.00
2019-01-13T12:37:59.373Z,34.53
2019-01-13T12:40:32.058Z,25.57
2019-01-13T12:43:04.050Z,35.80
2019-01-13T12:45:34.912Z,45.70
2019-01-13T12:48:06.451Z,37.37
2019-01-13T12:50:39.314Z,40.50
2019-01-13T12:53:10.568Z,35.87
2019-01-13T12:55:41.230Z,35.57
2019-01-13T12:58:14.140Z,28.67
2019-01-13T13:00:44.886Z,23.37
2019-01-13T13:03:16.541Z,30.00
2019-01-13T13:05:48.324Z,28.87
2019-01-13T13:08:19.242Z,35.90
2019-01-13T13:10:54.440Z,35.43
2019-01-13T13:13:25.521Z,32.60
2019-01-13T13:15:56.977Z,29.53
2019-01-13T13:18:29.353Z,27.27
2019-01-13T13:21:00.293Z,31.30
2019-01-13T13:23:31.132Z,41.83
2019-01-13T13:26:01.997Z,25.93
2019-01-13T13:28:32.738Z,19.73
2019-01-13T13:31:04.705Z,30.23
2019-01-13T13:33:38.933Z,32.00
2019-01-13T13:36:10.697Z,18.60
2019-01-13T13:38:41.311Z,24.70
2019-01-13T13:41:11.934Z,30.10
2019-01-13T13:43:41.594Z,17.47
2019-01-13T13:46:12.215Z,24.27
2019-01-13T13:48:43.214Z,21.40
2019-01-13T13:51:14.635Z,29.60
2019-01-13T13:53:45.390Z,25.07
2019-01-13T13:56:16.084Z,25.07
2019-01-13T13:58:46.935Z,27.33
2019-01-13T14:01:18.012Z,31.40
2019-01-13T14:03:48.738Z,33.33
2019-01-13T14:06:19.369Z,41.37
2019-01-13T14:08:50.023Z,39.63
2019-01-13T14:11:20.679Z,33.43
2019-01-13T14:13:51.529Z,25.63
2019-01-13T14:16:22.221Z,28.70
2019-01-13T14:18:52.964Z,23.33
2019-01-13T14:21:23.610Z,23.10
2019-01-13T14:23:54.220Z,29.97
2019-01-13T14:26:25.031Z,20.77
2019-01-13T14:28:57.366Z,20.43
2019-01-13T14:31:27.900Z,25.23
2019-01-13T14:33:58.640Z,27.03
2019-01-13T14:36:32.812Z,31.43
2019-01-13T14:39:07.711Z,41.17
2019-01-13T14:41:38.446Z,24.63
2019-01-13T14:44:09.327Z,30.00
2019-01-13T14:46:39.880Z,34.80
2019-01-13T14:49:11.036Z,26.57
2019-01-13T14:51:41.831Z,27.43
2019-01-13T14:54:12.464Z,31.73
2019-01-13T14:56:43.152Z,32.40
2019-01-13T14:59:14.042Z,36.83
2019-01-13T15:01:44.664Z,24.80
2019-01-13T15:04:15.402Z,16.90
2019-01-13T15:06:46.212Z,12.60
2019-01-13T15:09:16.923Z,12.07
2019-01-13T15:11:47.695Z,11.23
2019-01-13T15:14:19.517Z,11.27
2019-01-13T15:16:50.244Z,8.03
2019-01-13T15:19:20.886Z,12.37
2019-01-13T15:21:51.606Z,10.60
2019-01-13T15:24:22.165Z,7.00
2019-01-13T15:26:55.243Z,10.27
2019-01-13T15:29:25.906Z,11.53
2019-01-13T15:31:56.723Z,12.57
2019-01-13T15:34:28.660Z,14.20
2019-01-13T15:36:59.295Z,9.93
2019-01-13T15:39:30.018Z,11.00
2019-01-13T15:42:00.667Z,10.13
2019-01-13T15:44:31.328Z,12.43
2019-01-13T15:47:03.027Z,13.67
2019-01-13T15:49:33.756Z,14.87
2019-01-13T15:52:04.588Z,13.67
2019-01-13T15:54:36.567Z,16.07
2019-01-13T15:57:09.567Z,14.23
2019-01-13T15:59:40.464Z,11.07
2019-01-13T16:02:11.585Z,16.43
2019-01-13T16:04:42.366Z,16.43
2019-01-13T16:07:15.354Z,13.97
2019-01-13T16:09:47.216Z,14.03
2019-01-13T16:12:17.864Z,13.30
2019-01-13T16:14:48.592Z,14.13
2019-01-13T16:17:19.261Z,13.67
2019-01-13T16:19:49.878Z,14.53
2019-01-13T16:22:21.031Z,10.33
2019-01-13T16:24:53.577Z,16.00
2019-01-13T16:27:24.403Z,19.47
2019-01-13T16:30:02.838Z,15.43
2019-01-13T16:32:39.299Z,16.77
2019-01-13T16:35:12.261Z,17.47
2019-01-13T16:37:43.060Z,14.67
2019-01-13T16:40:15.930Z,12.73
2019-01-13T16:42:47.158Z,16.93
2019-01-13T16:45:20.959Z,15.90
2019-01-13T16:47:53.215Z,12.03
2019-01-13T16:50:25.349Z,17.47
2019-01-13T16:52:57.945Z,15.63
2019-01-13T16:55:29.000Z,12.33
2019-01-13T16:58:02.590Z,13.47
2019-01-13T17:00:36.258Z,14.43
2019-01-13T17:03:09.454Z,13.23
2019-01-13T17:05:41.608Z,10.00
2019-01-13T17:08:15.388Z,11.93
2019-01-13T17:10:46.118Z,17.77
2019-01-13T17:13:18.155Z,10.53
2019-01-13T17:15:51.342Z,17.27
2019-01-13T17:18:25.513Z,16.73
2019-01-13T17:20:56.138Z,16.50
2019-01-13T17:23:29.365Z,14.33
2019-01-13T17:26:00.215Z,17.43
2019-01-13T17:28:31.059Z,16.20
2019-01-13T17:31:01.945Z,16.77
2019-01-13T17:33:32.589Z,14.67
2019-01-13T17:36:03.355Z,15.73
2019-01-13T17:38:40.251Z,16.33
2019-01-13T17:41:12.254Z,11.90
2019-01-13T17:43:46.301Z,6.13
2019-01-13T17:46:19.533Z,12.07
2019-01-13T17:48:51.858Z,12.37
2019-01-13T17:51:22.602Z,8.53
2019-01-13T17:53:54.466Z,10.03
2019-01-13T17:56:26.284Z,10.07
2019-01-13T17:58:57.061Z,11.67
2019-01-13T18:01:40.908Z,12.33
2019-01-13T18:04:13.172Z,15.10
2019-01-13T18:06:45.907Z,7.20
2019-01-13T18:55:07.031Z,6.70
2019-01-13T18:57:37.660Z,8.83
2019-01-13T19:00:11.356Z,5.63
2019-01-13T19:02:42.268Z,6.20
2019-01-13T19:05:13.851Z,7.20
2019-01-13T19:07:46.932Z,7.07
2019-01-13T19:10:30.224Z,6.17
2019-01-13T19:13:16.742Z,4.03
2019-01-13T19:15:51.457Z,5.87
2019-01-13T19:18:29.967Z,4.20
2019-01-13T19:21:04.149Z,3.43
2019-01-13T19:23:37.292Z,2.63
2019-01-13T19:26:10.556Z,4.47
2019-01-13T19:28:44.360Z,4.60
2019-01-13T19:31:17.102Z,5.53
2019-01-13T19:33:50.462Z,7.33
2019-01-13T19:36:23.300Z,10.37
2019-01-13T19:38:56.032Z,8.33
2019-01-13T19:41:29.761Z,8.80
2019-01-13T19:44:06.843Z,9.97
2019-01-13T19:46:39.503Z,10.90
2019-01-13T19:49:14.271Z,10.07
2019-01-13T19:51:48.420Z,16.23
2019-01-13T19:54:22.902Z,8.70
2019-01-13T19:56:57.644Z,7.67
2019-01-13T19:59:31.841Z,14.90
2019-01-13T20:02:08.065Z,10.80
2019-01-13T20:04:44.652Z,12.97
2019-01-13T20:07:22.241Z,11.07
2019-01-13T20:09:57.858Z,13.97
2019-01-13T20:12:33.700Z,10.47
2019-01-13T20:15:09.887Z,11.17
2019-01-13T20:17:48.322Z,12.43
2019-01-13T20:20:22.386Z,12.50
2019-01-13T20:22:58.957Z,13.13
2019-01-13T20:25:34.589Z,10.07
2019-01-13T20:28:10.123Z,15.47
2019-01-13T20:30:43.839Z,11.43
2019-01-13T20:33:17.932Z,12.53
2019-01-13T20:35:51.568Z,13.47
2019-01-13T20:38:25.784Z,12.77
2019-01-13T20:41:00.841Z,16.80
2019-01-13T20:43:35.447Z,9.63
2019-01-13T20:46:12.944Z,16.03
2019-01-13T20:48:47.970Z,16.00
2019-01-13T20:51:31.980Z,15.57
2019-01-13T20:54:22.615Z,15.83
2019-01-13T20:56:59.863Z,11.97
2019-01-13T20:59:37.941Z,17.80
2019-01-13T21:02:16.433Z,14.70
2019-01-13T21:04:56.186Z,15.80
2019-01-13T21:07:32.950Z,18.40
2019-01-13T21:10:12.161Z,16.90
2019-01-13T21:12:48.869Z,15.93
2019-01-13T21:15:24.472Z,18.90
2019-01-13T21:18:06.398Z,16.50
2019-01-13T21:20:45.641Z,20.23
2019-01-13T21:23:19.162Z,20.33
2019-01-13T21:25:54.713Z,15.90
2019-01-13T21:28:44.226Z,16.23
2019-01-13T21:31:23.820Z,23.30
2019-01-13T21:34:00.148Z,17.27
2019-01-13T21:36:45.945Z,24.10
2019-01-13T21:39:29.432Z,24.77
2019-01-13T21:42:08.009Z,22.40
2019-01-13T21:44:45.370Z,23.20
2019-01-13T21:47:22.331Z,18.60
2019-01-13T21:50:01.273Z,23.67
2019-01-13T21:52:37.294Z,18.20
2019-01-13T21:55:13.090Z,19.63
2019-01-13T21:57:58.271Z,21.00
2019-01-13T22:00:35.725Z,18.07
2019-01-13T22:03:13.236Z,19.83
2019-01-13T22:05:51.057Z,20.53
2019-01-13T22:08:29.435Z,15.93
2019-01-13T22:11:03.530Z,19.97
2019-01-13T22:13:36.778Z,17.33
2019-01-13T22:16:15.908Z,21.90
2019-01-13T22:18:47.173Z,23.10
2019-01-13T22:21:21.935Z,15.87
2019-01-13T22:23:57.950Z,20.80
2019-01-13T22:26:31.601Z,25.53
2019-01-13T22:29:04.895Z,18.33
2019-01-13T22:31:37.850Z,24.23
2019-01-13T22:34:12.953Z,19.50
2019-01-13T22:36:48.688Z,24.90
2019-01-13T22:39:23.957Z,20.10
2019-01-13T22:41:57.241Z,18.17
2019-01-13T22:44:31.948Z,18.90
2019-01-13T22:47:06.502Z,15.53
2019-01-13T22:49:37.416Z,17.77
2019-01-13T22:52:13.905Z,19.47
2019-01-13T22:54:47.594Z,14.43
2019-01-13T22:57:23.401Z,19.27
2019-01-13T22:59:57.615Z,11.10
2019-01-13T23:02:31.122Z,10.33
2019-01-13T23:05:02.464Z,12.03
2019-01-13T23:07:36.391Z,9.60
2019-01-13T23:10:07.980Z,7.90
2019-01-13T23:12:40.094Z,12.03
2019-01-13T23:15:12.770Z,11.27
2019-01-13T23:17:46.162Z,7.83
2019-01-13T23:20:17.247Z,9.93
2019-01-13T23:22:50.506Z,10.07
2019-01-13T23:25:23.793Z,12.13
2019-01-13T23:27:55.257Z,12.70
2019-01-13T23:30:28.434Z,11.77
2019-01-13T23:33:03.616Z,9.80
2019-01-13T23:35:37.442Z,10.63
2019-01-13T23:38:10.589Z,16.13
2019-01-13T23:40:44.017Z,16.97
2019-01-13T23:43:17.202Z,14.37
2019-01-13T23:45:50.497Z,10.03
2019-01-13T23:48:23.190Z,18.53
2019-01-13T23:50:56.753Z,16.37
2019-01-13T23:53:30.565Z,14.03
2019-01-13T23:56:03.735Z,14.47
2019-01-13T23:58:37.650Z,11.37
